Time;durP1;ratioP1;P1;durP2;ratioP2;P2;SDS_P1;SDS_P2;PMS_P1;PMS_P2;Temp;Humidity;BMP_temperature;BMP_pressure;BME280_temperature;BME280_humidity;BME280_pressure;Samples;Min_cycle;Max_cycle;Signal;HPM_P1;HPM_P2
2022/10/15 00:00:10;;;;;;;;;7.00;7.00;;;;;22.26;55.94;100605.20;105320;1300;20075;-52
2022/10/15 00:02:57;;;;;;;;;10.00;7.00;;;;;22.27;55.82;100600.71;105263;1300;22165;-53
2022/10/15 00:05:24;;;;;;;;;8.50;8.00;;;;;22.27;55.76;100604.02;105268;1285;18553;-51
2022/10/15 00:07:51;;;;;;;;;7.00;7.00;;;;;22.26;55.98;100600.25;105211;1284;21501;-53
2022/10/15 00:10:19;;;;;;;;;6.00;6.00;;;;;22.27;55.72;100594.71;105320;1277;20019;-52
2022/10/15 00:12:46;;;;;;;;;9.00;7.00;;;;;22.26;55.80;100594.28;105266;1285;18652;-52
2022/10/15 00:15:13;;;;;;;;;7.00;7.00;;;;;22.26;55.88;100593.36;105325;1300;18495;-55
2022/10/15 00:17:40;;;;;;;;;9.00;9.00;;;;;22.26;55.65;100593.06;105284;1299;20740;-52
2022/10/15 00:20:07;;;;;;;;;9.50;7.00;;;;;22.25;55.91;100588.73;105218;1295;21530;-52
2022/10/15 00:22:35;;;;;;;;;7.00;6.00;;;;;22.25;55.72;100586.46;105225;1277;20350;-51
2022/10/15 00:25:02;;;;;;;;;8.00;6.50;;;;;22.25;55.87;100581.17;105241;1285;20921;-53
2022/10/15 00:27:29;;;;;;;;;;;;;;;22.25;55.76;100576.77;105242;1303;18414;-53
2022/10/15 00:29:58;;;;;;;;;7.00;7.00;;;;;22.25;55.77;100576.93;105179;1292;24062;-54
2022/10/15 00:32:26;;;;;;;;;10.00;7.00;;;;;22.25;55.75;100575.50;105251;1300;22656;-55
2022/10/15 00:34:53;;;;;;;;;9.00;7.00;;;;;22.25;55.64;100571.30;105193;1285;19639;-55
2022/10/15 00:37:21;;;;;;;;;7.00;6.00;;;;;22.24;55.89;100564.29;105247;1285;18578;-51
2022/10/15 00:39:48;;;;;;;;;6.00;6.00;;;;;22.25;55.74;100563.32;105230;1288;21130;-54
2022/10/15 00:42:15;;;;;;;;;7.00;6.50;;;;;22.24;55.83;100559.02;105293;1303;18411;-55
2022/10/15 00:44:42;;;;;;;;;10.00;9.00;;;;;22.25;55.66;100563.02;105280;1285;18551;-54
2022/10/15 00:47:10;;;;;;;;;6.00;6.00;;;;;22.24;55.64;100554.83;105245;1301;22534;-55
2022/10/15 00:49:38;;;;;;;;;7.00;6.00;;;;;22.24;55.52;100558.11;105265;1284;22280;-51
2022/10/15 00:52:05;;;;;;;;;7.00;7.00;;;;;22.24;55.72;100560.54;105238;1285;21596;-52
2022/10/15 00:54:32;;;;;;;;;9.00;7.00;;;;;22.24;55.59;100561.28;105193;1300;19434;-51
2022/10/15 00:56:59;;;;;;;;;7.00;6.00;;;;;22.24;55.74;100557.94;105273;1300;18596;-52
2022/10/15 00:59:27;;;;;;;;;6.00;6.00;;;;;22.24;55.70;100555.24;105232;1300;23685;-53
2022/10/15 01:01:54;;;;;;;;;7.00;7.00;;;;;22.23;55.63;100556.23;105189;1291;19488;-53
2022/10/15 01:04:21;;;;;;;;;7.00;6.00;;;;;22.24;55.58;100558.13;105265;1285;18337;-53
2022/10/15 01:06:49;;;;;;;;;;;;;;;22.24;55.64;100553.95;105272;1285;21551;-52
2022/10/15 01:09:16;;;;;;;;;6.50;6.50;;;;;22.25;55.60;100557.19;105358;1292;20834;-52
2022/10/15 01:11:43;;;;;;;;;;;;;;;22.24;55.60;100557.23;105324;1278;18156;-51
2022/10/15 01:14:10;;;;;;;;;9.00;7.00;;;;;22.24;55.52;100552.64;105254;1301;21074;-53
2022/10/15 01:16:37;;;;;;;;;;;;;;;22.25;55.54;100554.99;105253;1293;22201;-53
2022/10/15 01:19:05;;;;;;;;;;;;;;;22.23;55.61;100549.55;105174;1284;18375;-53
2022/10/15 01:21:32;;;;;;;;;6.00;6.00;;;;;22.24;55.65;100550.58;105222;1300;19645;-51
2022/10/15 01:23:59;;;;;;;;;7.00;7.00;;;;;22.23;55.58;100550.46;105252;1300;20869;-52
2022/10/15 01:26:26;;;;;;;;;7.00;6.00;;;;;22.23;55.60;100548.59;105211;1293;19960;-53
2022/10/15 01:28:54;;;;;;;;;6.00;6.00;;;;;22.23;55.55;100547.71;105276;1285;23195;-52
2022/10/15 01:31:21;;;;;;;;;8.00;8.00;;;;;22.23;55.60;100545.55;105252;1284;20871;-54
2022/10/15 01:33:48;;;;;;;;;;;;;;;22.22;55.42;100549.23;105265;1299;18460;-52
2022/10/15 01:36:16;;;;;;;;;10.00;9.00;;;;;22.24;55.40;100546.38;105320;1285;21254;-55
2022/10/15 01:38:43;;;;;;;;;10.00;9.00;;;;;22.23;55.47;100546.23;105196;1285;19278;-51
2022/10/15 01:41:10;;;;;;;;;7.00;6.00;;;;;22.23;55.31;100544.46;105258;1277;18606;-54
2022/10/15 01:43:37;;;;;;;;;5.00;5.00;;;;;22.23;55.46;100543.30;105231;1294;20028;-53
2022/10/15 01:46:04;;;;;;;;;;;;;;;22.23;55.50;100543.33;105238;1277;19295;-52
2022/10/15 01:48:32;;;;;;;;;6.00;6.00;;;;;22.23;55.47;100537.37;105296;1303;20128;-51
2022/10/15 01:50:59;;;;;;;;;;;;;;;22.22;55.53;100536.14;105261;1294;20369;-56
2022/10/15 01:53:26;;;;;;;;;6.00;6.00;;;;;22.23;55.30;100533.33;105288;1300;19594;-53
2022/10/15 01:55:53;;;;;;;;;7.50;6.50;;;;;22.22;55.32;100534.71;105242;1301;18481;-54
2022/10/15 01:58:21;;;;;;;;;7.00;6.00;;;;;22.22;55.36;100534.38;105250;1303;18610;-54
2022/10/15 02:00:48;;;;;;;;;6.00;6.00;;;;;22.22;55.39;100535.46;105283;1291;19197;-55
2022/10/15 02:03:15;;;;;;;;;7.00;7.00;;;;;22.22;55.31;100533.45;105288;1270;20837;-52
2022/10/15 02:05:42;;;;;;;;;7.00;7.00;;;;;22.21;55.49;100533.70;105265;1278;18846;-54
2022/10/15 02:08:10;;;;;;;;;7.00;6.00;;;;;22.22;55.18;100531.98;105270;1300;19637;-53
2022/10/15 02:10:37;;;;;;;;;5.50;5.50;;;;;22.22;55.36;100526.22;105264;1294;18910;-55
2022/10/15 02:13:04;;;;;;;;;6.00;6.00;;;;;22.21;55.27;100523.70;105269;1302;21563;-51
2022/10/15 02:15:31;;;;;;;;;7.00;7.00;;;;;22.21;55.21;100521.17;105228;1295;20819;-54
2022/10/15 02:17:58;;;;;;;;;7.00;7.00;;;;;22.22;55.32;100524.17;105221;1278;18635;-51
2022/10/15 02:20:26;;;;;;;;;;;;;;;22.21;55.40;100521.73;105290;1291;23078;-55
2022/10/15 02:22:53;;;;;;;;;7.00;7.00;;;;;22.21;55.23;100520.63;105270;1303;19604;-54
2022/10/15 02:25:21;;;;;;;;;8.00;7.00;;;;;22.22;55.39;100517.86;105226;1285;22460;-54
2022/10/15 02:27:48;;;;;;;;;;;;;;;22.22;55.21;100519.09;105262;1293;22725;-54
2022/10/15 02:30:15;;;;;;;;;7.00;7.00;;;;;22.22;55.04;100518.67;105310;1291;20987;-53
2022/10/15 02:32:42;;;;;;;;;;;;;;;22.22;55.01;100512.41;105302;1295;18481;-51
2022/10/15 02:35:10;;;;;;;;;9.50;9.50;;;;;22.22;55.13;100508.75;105306;1284;19898;-53
2022/10/15 02:37:37;;;;;;;;;9.00;7.00;;;;;22.22;55.10;100510.36;105262;1300;19501;-53
2022/10/15 02:40:04;;;;;;;;;9.00;6.00;;;;;22.21;55.17;100503.54;105253;1285;19815;-51
2022/10/15 02:42:31;;;;;;;;;6.00;5.00;;;;;22.21;55.20;100502.15;105311;1301;18809;-53
2022/10/15 02:44:59;;;;;;;;;9.00;7.00;;;;;22.21;55.17;100503.20;105253;1293;19315;-51
2022/10/15 02:47:26;;;;;;;;;7.00;6.00;;;;;22.20;55.01;100502.48;105265;1285;18345;-51
2022/10/15 02:49:53;;;;;;;;;6.50;6.00;;;;;22.21;55.07;100502.10;105242;1285;20045;-51
2022/10/15 02:52:20;;;;;;;;;6.00;6.00;;;;;22.21;55.14;100499.00;105208;1284;21030;-51
2022/10/15 02:54:48;;;;;;;;;9.50;6.00;;;;;22.21;55.19;100497.41;105265;1285;19017;-52
2022/10/15 02:57:15;;;;;;;;;6.00;5.00;;;;;22.21;55.03;100494.80;105261;1303;18500;-54
2022/10/15 02:59:42;;;;;;;;;6.00;5.00;;;;;22.21;55.09;100493.92;105262;1303;20809;-51
2022/10/15 03:02:09;;;;;;;;;6.00;6.00;;;;;22.21;55.10;100485.98;105275;1285;18455;-53
2022/10/15 03:04:37;;;;;;;;;6.00;6.00;;;;;22.20;55.05;100491.82;105190;1284;23015;-53
2022/10/15 03:07:04;;;;;;;;;9.00;7.00;;;;;22.20;55.03;100489.33;105271;1300;20930;-51
2022/10/15 03:09:31;;;;;;;;;6.00;6.00;;;;;22.19;55.05;100487.60;105246;1306;20626;-55
2022/10/15 03:11:58;;;;;;;;;7.00;7.00;;;;;22.20;54.92;100487.90;105262;1285;18831;-51
2022/10/15 03:14:25;;;;;;;;;9.00;9.00;;;;;22.20;55.09;100490.27;105174;1284;109982;-55
2022/10/15 03:16:53;;;;;;;;;8.00;6.50;;;;;22.20;54.90;100492.44;105235;1284;19624;-52
2022/10/15 03:19:20;;;;;;;;;9.50;8.00;;;;;22.20;55.03;100488.66;105239;1301;18709;-54
2022/10/15 03:21:47;;;;;;;;;7.00;7.00;;;;;22.19;55.02;100491.94;105264;1292;22886;-52
2022/10/15 03:24:14;;;;;;;;;7.00;7.00;;;;;22.18;55.06;100483.59;105334;1284;18436;-53
2022/10/15 03:26:42;;;;;;;;;9.50;9.00;;;;;22.17;54.88;100479.81;105207;1278;20358;-53
2022/10/15 03:29:09;;;;;;;;;9.00;7.00;;;;;22.17;54.94;100481.65;105272;1285;19308;-51
2022/10/15 03:31:36;;;;;;;;;7.00;6.00;;;;;22.18;55.13;100477.42;105277;1285;22930;-52
2022/10/15 03:34:03;;;;;;;;;7.00;7.00;;;;;22.17;55.07;100475.11;105282;1300;18710;-51
2022/10/15 03:36:31;;;;;;;;;11.00;9.00;;;;;22.17;55.11;100470.09;105325;1300;19567;-52
2022/10/15 03:38:58;;;;;;;;;7.00;6.00;;;;;22.17;55.08;100463.71;105253;1300;20611;-52
2022/10/15 03:41:25;;;;;;;;;7.00;7.00;;;;;22.17;54.95;100464.77;105250;1300;18416;-53
2022/10/15 03:43:52;;;;;;;;;7.00;6.00;;;;;22.18;54.97;100461.96;105258;1291;19528;-52
2022/10/15 03:46:19;;;;;;;;;7.00;7.00;;;;;22.17;55.09;100462.58;105235;1293;22087;-52
2022/10/15 03:48:47;;;;;;;;;9.50;8.00;;;;;22.17;54.91;100461.28;105278;1303;20347;-56
2022/10/15 03:51:14;;;;;;;;;10.00;9.00;;;;;22.17;55.02;100455.31;105279;1285;19518;-53
2022/10/15 03:53:41;;;;;;;;;10.00;10.00;;;;;22.17;54.78;100455.89;105249;1300;18332;-54
2022/10/15 03:56:08;;;;;;;;;9.00;7.00;;;;;22.18;54.93;100461.55;105262;1291;18809;-53
2022/10/15 03:58:36;;;;;;;;;9.00;7.00;;;;;22.17;54.79;100459.45;105287;1293;24168;-53
2022/10/15 04:01:03;;;;;;;;;10.00;10.00;;;;;22.17;54.72;100455.81;105225;1290;24205;-54
2022/10/15 04:03:30;;;;;;;;;7.00;6.00;;;;;22.18;54.69;100451.39;105271;1285;18942;-54
2022/10/15 04:05:58;;;;;;;;;9.00;9.00;;;;;22.19;54.68;100452.03;105258;1298;19921;-51
2022/10/15 04:08:25;;;;;;;;;9.00;7.00;;;;;22.18;54.81;100455.55;105237;1303;18360;-53
2022/10/15 04:10:53;;;;;;;;;9.00;9.00;;;;;22.17;54.72;100453.65;105249;1284;22175;-54
2022/10/15 04:13:20;;;;;;;;;7.00;7.00;;;;;22.16;54.75;100446.27;105245;1292;19298;-51
2022/10/15 04:15:47;;;;;;;;;10.00;9.00;;;;;22.16;54.78;100452.15;105288;1293;22638;-56
2022/10/15 04:18:14;;;;;;;;;10.00;8.00;;;;;22.16;54.79;100446.02;105300;1285;20484;-55
2022/10/15 04:20:42;;;;;;;;;7.00;7.00;;;;;22.17;54.67;100443.19;105212;1291;19630;-55
2022/10/15 04:23:09;;;;;;;;;10.00;9.00;;;;;22.16;54.80;100444.13;105231;1277;18687;-52
2022/10/15 04:25:36;;;;;;;;;10.00;10.00;;;;;22.15;54.69;100442.28;105244;1293;20302;-51
2022/10/15 04:28:03;;;;;;;;;7.00;7.00;;;;;22.15;54.73;100443.92;105226;1285;19332;-52
2022/10/15 04:30:31;;;;;;;;;10.00;9.00;;;;;22.15;54.72;100444.59;105314;1301;18472;-51
2022/10/15 04:32:58;;;;;;;;;10.00;7.00;;;;;22.14;54.54;100446.18;105259;1303;20240;-52
2022/10/15 04:35:25;;;;;;;;;11.00;9.00;;;;;22.14;54.74;100445.46;105254;1295;19399;-54
2022/10/15 04:37:52;;;;;;;;;7.00;7.00;;;;;22.14;54.63;100451.46;105219;1303;18826;-51
2022/10/15 04:40:20;;;;;;;;;9.50;9.00;;;;;22.14;54.63;100452.77;105282;1285;18698;-52
2022/10/15 04:42:47;;;;;;;;;10.00;9.00;;;;;22.14;54.54;100455.63;105328;1300;19670;-52
2022/10/15 04:45:14;;;;;;;;;10.00;9.00;;;;;22.15;54.56;100455.50;105277;1281;18297;-56
2022/10/15 04:47:41;;;;;;;;;;;;;;;22.16;54.57;100456.56;105275;1293;22276;-57
2022/10/15 04:50:09;;;;;;;;;7.00;7.00;;;;;22.15;54.51;100457.90;105302;1300;21986;-55
2022/10/15 04:52:36;;;;;;;;;;;;;;;22.16;54.49;100460.71;105260;1278;18775;-51
2022/10/15 04:55:03;;;;;;;;;9.50;9.00;;;;;22.16;54.43;100460.30;105233;1302;19780;-56
2022/10/15 04:57:31;;;;;;;;;10.00;9.00;;;;;22.16;54.40;100454.50;105272;1291;22874;-54
2022/10/15 04:59:58;;;;;;;;;13.00;9.00;;;;;22.15;54.36;100449.92;105251;1291;19647;-55
2022/10/15 05:02:25;;;;;;;;;7.00;7.00;;;;;22.17;54.43;100452.08;105264;1277;20175;-54
2022/10/15 05:04:53;;;;;;;;;11.00;9.00;;;;;22.16;54.41;100446.19;105228;1295;19552;-53
2022/10/15 05:07:20;;;;;;;;;;;;;;;22.16;54.36;100441.79;105229;1300;19672;-53
2022/10/15 05:09:47;;;;;;;;;8.50;8.50;;;;;22.17;54.25;100436.02;105316;1294;19616;-54
2022/10/15 05:12:14;;;;;;;;;11.00;9.00;;;;;22.17;54.43;100432.88;105248;1285;19431;-55
2022/10/15 05:14:41;;;;;;;;;8.00;8.00;;;;;22.17;54.42;100437.23;105262;1277;20062;-52
2022/10/15 05:17:09;;;;;;;;;10.00;9.00;;;;;22.17;54.69;100436.21;105252;1278;20238;-55
2022/10/15 05:19:36;;;;;;;;;14.00;12.00;;;;;22.17;54.74;100438.39;105286;1278;20967;-54
2022/10/15 05:22:03;;;;;;;;;7.00;7.00;;;;;22.17;54.55;100436.39;105258;1285;19711;-55
2022/10/15 05:24:31;;;;;;;;;9.00;9.00;;;;;22.17;54.75;100436.35;105258;1291;20210;-55
2022/10/15 05:26:58;;;;;;;;;9.00;7.00;;;;;22.18;54.69;100431.55;105265;1285;20709;-53
2022/10/15 05:29:25;;;;;;;;;7.00;6.00;;;;;22.17;54.83;100428.77;105229;1285;18336;-52
2022/10/15 05:31:52;;;;;;;;;10.00;10.00;;;;;22.17;54.79;100432.52;105076;1277;20082;-54
2022/10/15 05:34:19;;;;;;;;;8.00;8.00;;;;;22.17;54.70;100426.14;105209;1301;19498;-55
2022/10/15 05:36:47;;;;;;;;;;;;;;;22.22;54.82;100435.58;105259;1287;18883;-54
2022/10/15 05:39:14;;;;;;;;;8.00;7.00;;;;;22.22;55.01;100431.14;105252;1285;20099;-53
2022/10/15 05:41:41;;;;;;;;;9.00;9.00;;;;;22.27;55.61;100433.38;105232;1300;19279;-52
2022/10/15 05:44:08;;;;;;;;;9.00;9.00;;;;;22.29;55.64;100428.75;105252;1285;21816;-52
2022/10/15 05:46:36;;;;;;;;;10.00;10.00;;;;;22.29;55.79;100424.41;105230;1303;18866;-53
2022/10/15 05:49:03;;;;;;;;;9.00;9.00;;;;;22.30;55.77;100427.11;105246;1303;19758;-52
2022/10/15 05:51:30;;;;;;;;;11.00;7.00;;;;;22.29;55.99;100427.92;105244;1294;18604;-51
2022/10/15 05:53:57;;;;;;;;;6.50;6.50;;;;;22.29;56.13;100431.38;105215;1284;18761;-56
2022/10/15 05:56:25;;;;;;;;;10.00;10.00;;;;;22.30;56.03;100429.60;105228;1296;20963;-57
2022/10/15 05:58:52;;;;;;;;;9.00;9.00;;;;;22.30;55.64;100425.64;105250;1283;18486;-56
2022/10/15 06:01:19;;;;;;;;;11.00;9.00;;;;;22.30;55.80;100423.22;105256;1293;20211;-53
2022/10/15 06:03:47;;;;;;;;;9.00;6.00;;;;;22.31;55.80;100425.33;105309;1304;22859;-55
2022/10/15 06:06:14;;;;;;;;;;;;;;;22.30;55.80;100430.48;105171;1284;20061;-55
2022/10/15 06:08:41;;;;;;;;;9.00;7.00;;;;;22.30;55.73;100436.02;105080;1300;18222;-55
2022/10/15 06:11:08;;;;;;;;;11.00;10.00;;;;;22.30;56.02;100437.83;105083;1278;21944;-55
2022/10/15 06:13:36;;;;;;;;;9.00;7.00;;;;;22.31;55.58;100431.45;105206;1301;19036;-53
2022/10/15 06:16:03;;;;;;;;;;;;;;;22.33;55.74;100435.92;105239;1303;20461;-56
2022/10/15 06:18:30;;;;;;;;;7.00;6.50;;;;;22.33;55.79;100439.78;105205;1285;19280;-55
2022/10/15 06:20:58;;;;;;;;;9.00;7.00;;;;;22.32;55.69;100436.08;105282;1285;19571;-54
2022/10/15 06:23:25;;;;;;;;;9.00;9.00;;;;;22.32;55.59;100433.21;105252;1285;19890;-53
2022/10/15 06:25:52;;;;;;;;;8.50;7.00;;;;;22.30;55.72;100428.51;105234;1284;21598;-56
2022/10/15 06:28:19;;;;;;;;;9.00;7.00;;;;;22.29;55.63;100429.40;105273;1285;18822;-53
2022/10/15 06:30:47;;;;;;;;;11.00;11.00;;;;;22.29;55.52;100428.40;105289;1278;20236;-53
2022/10/15 06:33:15;;;;;;;;;;;;;;;22.30;55.53;100435.06;105228;1278;21150;-53
2022/10/15 06:35:42;;;;;;;;;10.50;10.00;;;;;22.30;55.46;100438.91;105267;1277;18731;-55
2022/10/15 06:38:09;;;;;;;;;10.00;9.50;;;;;22.30;55.51;100433.67;105229;1278;18789;-53
2022/10/15 06:40:36;;;;;;;;;11.00;11.00;;;;;22.30;55.75;100435.05;105234;1281;20833;-55
2022/10/15 06:43:03;;;;;;;;;9.00;9.00;;;;;22.30;55.92;100427.20;105246;1284;22879;-55
2022/10/15 06:45:31;;;;;;;;;10.00;9.00;;;;;22.34;56.10;100424.10;105269;1284;18542;-54
2022/10/15 06:47:58;;;;;;;;;11.50;8.00;;;;;22.38;56.65;100423.11;105244;1284;20978;-53
2022/10/15 06:50:25;;;;;;;;;10.00;9.00;;;;;22.39;56.77;100419.46;105167;1285;20217;-54
2022/10/15 06:52:52;;;;;;;;;13.00;7.00;;;;;22.43;57.11;100422.15;105292;1290;20160;-51
2022/10/15 06:55:19;;;;;;;;;7.00;7.00;;;;;22.49;57.51;100425.83;105220;1285;21942;-52
2022/10/15 06:57:47;;;;;;;;;9.00;9.00;;;;;22.50;57.51;100422.89;105280;1300;20250;-55
2022/10/15 07:00:14;;;;;;;;;7.00;7.00;;;;;22.53;57.46;100425.70;105282;1294;21187;-56
2022/10/15 07:02:41;;;;;;;;;;;;;;;22.60;57.96;100419.20;105193;1278;19661;-53
2022/10/15 07:05:09;;;;;;;;;10.00;9.00;;;;;22.66;57.64;100420.27;105285;1285;18560;-55
2022/10/15 07:07:36;;;;;;;;;9.00;9.00;;;;;22.71;57.62;100427.11;105262;1292;20416;-56
2022/10/15 07:10:03;;;;;;;;;10.00;9.00;;;;;22.75;57.39;100425.00;105221;1284;20754;-54
2022/10/15 07:12:31;;;;;;;;;7.00;7.00;;;;;22.78;57.12;100421.80;105234;1278;19650;-55
2022/10/15 07:14:58;;;;;;;;;10.00;10.00;;;;;22.76;57.03;100423.70;105273;1287;18752;-57
2022/10/15 07:17:25;;;;;;;;;10.50;10.00;;;;;22.74;57.03;100432.02;105238;1300;22805;-56
2022/10/15 07:19:52;;;;;;;;;10.00;9.00;;;;;22.74;56.88;100431.05;105241;1300;20040;-55
2022/10/15 07:22:19;;;;;;;;;11.00;7.00;;;;;22.75;56.98;100426.55;105222;1300;18753;-54
2022/10/15 07:24:47;;;;;;;;;7.00;7.00;;;;;22.72;56.94;100424.02;105213;1300;22214;-53
2022/10/15 07:27:14;;;;;;;;;10.00;9.50;;;;;22.68;56.89;100423.84;105181;1277;18705;-56
2022/10/15 07:29:41;;;;;;;;;6.00;6.00;;;;;22.64;56.81;100424.65;105202;1295;18691;-53
2022/10/15 07:32:08;;;;;;;;;9.00;7.00;;;;;22.62;57.07;100425.14;105248;1291;21955;-56
2022/10/15 07:34:36;;;;;;;;;8.00;7.00;;;;;22.60;57.09;100428.37;105263;1300;18421;-53
2022/10/15 07:37:03;;;;;;;;;9.00;9.00;;;;;22.55;57.06;100431.86;105223;1291;19997;-51
2022/10/15 07:39:30;;;;;;;;;10.00;9.00;;;;;22.54;56.90;100429.04;105233;1300;21249;-56
2022/10/15 07:41:57;;;;;;;;;10.00;9.00;;;;;22.52;56.74;100435.13;105232;1299;18336;-54
2022/10/15 07:44:25;;;;;;;;;8.00;6.50;;;;;22.49;56.80;100432.81;105302;1285;18571;-52
2022/10/15 07:46:52;;;;;;;;;;;;;;;22.49;57.13;100434.78;105270;1285;19271;-53
2022/10/15 07:49:19;;;;;;;;;10.00;9.00;;;;;22.52;56.89;100430.40;105261;1307;20820;-54
2022/10/15 07:51:46;;;;;;;;;9.00;7.00;;;;;22.54;57.03;100424.58;105294;1306;18534;-55
2022/10/15 07:54:14;;;;;;;;;7.00;7.00;;;;;22.55;56.89;100427.70;105242;1277;20861;-54
2022/10/15 07:56:41;;;;;;;;;7.00;7.00;;;;;22.56;56.75;100430.22;105208;1278;18687;-52
2022/10/15 07:59:08;;;;;;;;;5.50;5.00;;;;;22.56;56.65;100430.09;105123;1285;18561;-55
2022/10/15 08:01:35;;;;;;;;;9.50;8.00;;;;;22.57;56.68;100432.15;105200;1277;22848;-55
2022/10/15 08:04:02;;;;;;;;;9.00;9.00;;;;;22.58;56.90;100435.10;105220;1275;18471;-56
2022/10/15 08:06:30;;;;;;;;;50.00;39.50;;;;;22.60;57.13;100429.25;105233;1285;18709;-56
2022/10/15 08:08:57;;;;;;;;;168.00;120.00;;;;;22.58;57.19;100424.86;105210;1278;19317;-57
2022/10/15 08:11:24;;;;;;;;;188.00;145.00;;;;;22.57;57.16;100421.98;105204;1278;20329;-55
2022/10/15 08:13:51;;;;;;;;;193.00;142.00;;;;;22.57;57.14;100424.09;105183;1285;22431;-56
2022/10/15 08:16:19;;;;;;;;;215.00;173.50;;;;;22.59;56.92;100419.48;105144;1294;22466;-55
2022/10/15 08:18:47;;;;;;;;;203.00;145.00;;;;;22.60;57.22;100420.34;105158;1278;23170;-55
2022/10/15 08:21:14;;;;;;;;;128.00;95.00;;;;;22.51;57.19;100422.70;105096;1293;20477;-54
2022/10/15 08:23:41;;;;;;;;;103.50;79.50;;;;;22.41;56.61;100425.29;105180;1286;19281;-55
2022/10/15 08:26:08;;;;;;;;;95.00;67.00;;;;;22.31;55.96;100421.33;105160;1278;18945;-55
2022/10/15 08:28:35;;;;;;;;;;;;;;;22.22;55.40;100423.23;105231;1299;18923;-55
2022/10/15 08:31:03;;;;;;;;;;;;;;;22.11;54.79;100422.95;105284;1306;22726;-52
2022/10/15 08:33:30;;;;;;;;;77.50;57.00;;;;;22.05;54.44;100423.12;105284;1287;19411;-50
2022/10/15 08:35:57;;;;;;;;;;;;;;;22.07;54.15;100427.86;105218;1285;18499;-55
2022/10/15 08:38:24;;;;;;;;;68.00;51.00;;;;;22.08;53.96;100431.73;105227;1278;19477;-53
2022/10/15 08:40:52;;;;;;;;;60.00;45.00;;;;;22.14;53.96;100429.63;105221;1300;19473;-54
2022/10/15 08:43:19;;;;;;;;;61.00;44.00;;;;;22.21;53.63;100430.39;105246;1285;20465;-55
2022/10/15 08:45:47;;;;;;;;;50.50;39.50;;;;;22.25;53.69;100426.36;105260;1307;19238;-56
2022/10/15 08:48:15;;;;;;;;;44.00;35.50;;;;;22.31;53.81;100426.08;105151;1285;20034;-55
2022/10/15 08:50:42;;;;;;;;;36.00;31.00;;;;;22.34;53.99;100420.55;105146;1282;20176;-56
2022/10/15 08:53:09;;;;;;;;;38.00;29.00;;;;;22.34;54.22;100419.25;105135;1293;19312;-54
2022/10/15 08:55:36;;;;;;;;;37.00;30.00;;;;;22.32;54.29;100418.45;105241;1285;18541;-56
2022/10/15 08:58:05;;;;;;;;;23.50;23.00;;;;;22.32;54.30;100417.77;105249;1294;20210;-54
2022/10/15 09:00:32;;;;;;;;;31.00;26.00;;;;;22.31;54.44;100414.36;105279;1301;21101;-54
2022/10/15 09:02:59;;;;;;;;;29.00;22.50;;;;;22.31;54.36;100415.70;105240;1292;20257;-55
2022/10/15 09:05:27;;;;;;;;;24.00;21.00;;;;;22.32;54.45;100422.60;105273;1291;21189;-55
2022/10/15 09:07:54;;;;;;;;;23.00;20.00;;;;;22.32;54.30;100421.00;105223;1284;22754;-53
2022/10/15 09:10:21;;;;;;;;;22.00;19.00;;;;;22.34;54.33;100419.27;105270;1294;22748;-53
2022/10/15 09:12:49;;;;;;;;;;;;;;;22.36;54.33;100420.25;105294;1300;18558;-57
2022/10/15 09:15:16;;;;;;;;;18.00;17.00;;;;;22.35;54.30;100424.08;105260;1306;19493;-56
2022/10/15 09:17:43;;;;;;;;;17.00;16.50;;;;;22.33;54.09;100423.40;105275;1300;18429;-56
2022/10/15 09:20:10;;;;;;;;;;;;;;;22.33;54.33;100420.63;105313;1300;18894;-56
2022/10/15 09:22:38;;;;;;;;;19.00;15.00;;;;;22.32;54.18;100420.04;105273;1278;21000;-56
2022/10/15 09:25:05;;;;;;;;;17.00;14.00;;;;;22.33;54.00;100414.16;105173;1285;19410;-56
2022/10/15 09:27:32;;;;;;;;;18.00;15.00;;;;;22.32;54.03;100410.45;105209;1300;18620;-55
2022/10/15 09:29:59;;;;;;;;;14.00;14.00;;;;;22.32;53.89;100414.20;105285;1285;22376;-55
2022/10/15 09:32:30;;;;;;;;;18.00;15.00;;;;;22.32;53.92;100416.60;105260;1286;18833;-55
2022/10/15 09:34:59;;;;;;;;;18.00;15.00;;;;;22.33;53.87;100416.14;105227;1285;22234;-52
2022/10/15 09:37:26;;;;;;;;;15.00;15.00;;;;;22.33;53.72;100418.48;105230;1300;22812;-55
2022/10/15 09:39:53;;;;;;;;;19.00;15.00;;;;;22.32;53.85;100420.96;105282;1291;20255;-56
2022/10/15 09:42:20;;;;;;;;;16.00;13.50;;;;;22.31;53.79;100419.81;105274;1300;18926;-55
2022/10/15 09:44:48;;;;;;;;;13.50;12.00;;;;;22.31;53.89;100420.27;105245;1285;21172;-54
2022/10/15 09:47:15;;;;;;;;;15.50;12.50;;;;;22.31;53.72;100418.18;105292;1300;18622;-54
2022/10/15 09:49:42;;;;;;;;;17.00;14.00;;;;;22.31;53.61;100417.14;105278;1292;20020;-56
2022/10/15 09:52:10;;;;;;;;;11.00;11.00;;;;;22.31;53.58;100423.17;105290;1285;20926;-52
2022/10/15 09:54:37;;;;;;;;;13.50;12.00;;;;;22.31;53.66;100424.56;105275;1303;18610;-56
2022/10/15 09:57:04;;;;;;;;;13.00;11.00;;;;;22.31;53.60;100429.61;105235;1291;18949;-52
2022/10/15 09:59:31;;;;;;;;;21.00;15.00;;;;;22.31;53.63;100423.31;105241;1293;20823;-55
2022/10/15 10:01:59;;;;;;;;;18.50;16.00;;;;;22.29;53.49;100423.16;105217;1277;22363;-57
2022/10/15 10:04:26;;;;;;;;;28.00;24.00;;;;;22.25;53.32;100424.92;105266;1294;20413;-54
2022/10/15 10:06:53;;;;;;;;;27.00;23.50;;;;;22.12;53.27;100425.33;105347;1300;20605;-56
2022/10/15 10:09:20;;;;;;;;;29.50;27.00;;;;;22.08;53.16;100424.38;105250;1284;18904;-55
2022/10/15 10:11:48;;;;;;;;;28.00;24.00;;;;;22.08;53.23;100420.88;105294;1287;21710;-56
2022/10/15 10:14:15;;;;;;;;;;;;;;;22.11;53.27;100425.23;105147;1300;20868;-55
2022/10/15 10:16:42;;;;;;;;;27.00;26.00;;;;;22.08;52.74;100426.73;105137;1285;18701;-55
2022/10/15 10:19:09;;;;;;;;;31.00;27.00;;;;;22.00;53.02;100424.02;105207;1277;21326;-55
2022/10/15 10:21:38;;;;;;;;;34.00;27.00;;;;;22.02;52.88;100425.77;105250;1294;22364;-52
2022/10/15 10:24:05;;;;;;;;;25.00;23.00;;;;;22.04;52.63;100426.09;105279;1285;21651;-56
2022/10/15 10:26:32;;;;;;;;;32.00;29.00;;;;;22.03;52.50;100429.56;105256;1285;18877;-56
2022/10/15 10:28:59;;;;;;;;;30.00;29.00;;;;;22.03;52.52;100429.64;105261;1307;19304;-55
2022/10/15 10:31:27;;;;;;;;;29.00;25.00;;;;;22.03;52.38;100431.88;105322;1285;18722;-55
2022/10/15 10:33:54;;;;;;;;;29.00;28.00;;;;;21.99;52.40;100434.21;105281;1299;18670;-55
2022/10/15 10:36:21;;;;;;;;;30.00;25.00;;;;;21.99;52.39;100436.77;105258;1300;23923;-57
2022/10/15 10:38:49;;;;;;;;;31.00;25.00;;;;;21.99;52.45;100434.17;105214;1285;18552;-55
2022/10/15 10:41:16;;;;;;;;;31.00;27.00;;;;;21.97;52.40;100434.31;105204;1301;18637;-56
2022/10/15 10:43:44;;;;;;;;;33.00;29.00;;;;;21.90;52.30;100432.47;105213;1284;20947;-55
2022/10/15 10:46:13;;;;;;;;;29.50;26.00;;;;;21.89;52.39;100430.45;105226;1288;20041;-57
2022/10/15 10:48:40;;;;;;;;;;;;;;;21.91;52.29;100434.84;105252;1293;22379;-56
2022/10/15 10:51:07;;;;;;;;;33.00;31.00;;;;;21.86;52.33;100433.10;105258;1281;19273;-55
2022/10/15 10:53:35;;;;;;;;;33.00;27.00;;;;;21.84;52.07;100432.63;105261;1291;18262;-56
2022/10/15 10:56:02;;;;;;;;;30.00;26.00;;;;;21.85;52.19;100430.15;105273;1300;21392;-55
2022/10/15 10:58:29;;;;;;;;;27.00;24.00;;;;;21.87;52.13;100430.23;105258;1301;19589;-56
2022/10/15 11:00:56;;;;;;;;;30.00;26.00;;;;;21.85;52.15;100431.08;105277;1300;20300;-56
2022/10/15 11:03:24;;;;;;;;;35.00;30.00;;;;;21.81;52.10;100431.88;105319;1294;20420;-54
2022/10/15 11:05:51;;;;;;;;;30.00;27.00;;;;;21.83;52.03;100429.99;105263;1297;22960;-56
2022/10/15 11:08:18;;;;;;;;;36.00;30.00;;;;;21.85;51.78;100430.70;105270;1291;20012;-56
2022/10/15 11:10:46;;;;;;;;;;;;;;;21.85;51.77;100431.11;105274;1302;18796;-54
2022/10/15 11:13:13;;;;;;;;;26.00;23.00;;;;;21.82;51.90;100429.41;105292;1300;19837;-56
2022/10/15 11:15:41;;;;;;;;;26.00;26.00;;;;;21.80;51.93;100427.45;105252;1303;22791;-56